SAZN Airport Information

Runway Information
Runway 9 Length 8432 ft width 148 ft
Elevation 895 ft Threshold 0 ft Heading 90
Runway 27 Length 8432 ft Width 148 ft
Elevation 886 ft Threshold 0 ft Heading 270
Airport Frequencies
Type TWR Name NEUQUEN TW Frequency 119.3 MHZ
Airport Navaids
Type NDB Name Presidente Peron Frequency 307 KHZ
Type VOR-DME Name Neuquen Frequency 116700 KHZ
Type NDB Name Presidente Peron Frequency 332 KHZ
Airport Weather Information & NOTAM
ADDS - METARS form results

(1003 UTC 22 February 2019)
Data provider http://aviationweather.gov/metar/data/
 
Forecast for: SAZN (NEUQUEN AIRPORT , AR)
Text: TAF SAZN 220500Z 2206/2306 VRB03KT CAVOK TX30/2220Z TN18/2210Z
Forecast period: 0600 to 1000 UTC 22 February 2019
Forecast type: FROM: standard forecast or significant change
Winds: variable direction winds at 3 MPH (3 knots; 1.5 m/s)
Visibility: 6 or more miles 10+ km)
Ceiling: unknown
Clouds: missing
Weather: no significant weather forecast for this period
Text: BECMG 2210/2212 25015KT
Forecast period: 1000 UTC 22 February 2019 to 0600 UTC 23 February 2019
Forecast type: BECOMING: Conditions expected to become as follows by 1200 UTC 22 February 2019
Winds: from the WSW (250 degrees) at 17 MPH (15 knots; 7.7 m/s)
Visibility: 6 or more miles 10+ km)
Ceiling: unknown
Clouds: missing
Weather: no significant weather forecast for this period